sensor_id;sensor_type;location;lat;lon;timestamp;P1;durP1;ratioP1;P2;durP2;ratioP2
73779;SDS011;62093;37.614;15.072;2023-03-01T00:01:31;9.82;;;2.42;;
73779;SDS011;62093;37.614;15.072;2023-03-01T00:03:58;12.30;;;2.95;;
73779;SDS011;62093;37.614;15.072;2023-03-01T00:06:25;7.95;;;2.65;;
73779;SDS011;62093;37.614;15.072;2023-03-01T00:08:51;10.13;;;2.90;;
73779;SDS011;62093;37.614;15.072;2023-03-01T00:11:19;14.73;;;2.85;;
73779;SDS011;62093;37.614;15.072;2023-03-01T00:13:51;8.93;;;2.47;;
73779;SDS011;62093;37.614;15.072;2023-03-01T00:16:23;11.32;;;2.53;;
73779;SDS011;62093;37.614;15.072;2023-03-01T00:19:18;10.43;;;2.42;;
73779;SDS011;62093;37.614;15.072;2023-03-01T00:21:45;7.70;;;2.50;;
73779;SDS011;62093;37.614;15.072;2023-03-01T00:24:11;8.50;;;2.53;;
73779;SDS011;62093;37.614;15.072;2023-03-01T00:26:38;8.60;;;2.30;;
73779;SDS011;62093;37.614;15.072;2023-03-01T00:29:04;9.10;;;2.50;;
73779;SDS011;62093;37.614;15.072;2023-03-01T00:31:31;10.88;;;2.80;;
73779;SDS011;62093;37.614;15.072;2023-03-01T00:33:59;8.33;;;2.80;;
73779;SDS011;62093;37.614;15.072;2023-03-01T00:36:29;8.73;;;2.60;;
73779;SDS011;62093;37.614;15.072;2023-03-01T00:38:57;8.73;;;1.90;;
73779;SDS011;62093;37.614;15.072;2023-03-01T00:41:24;10.27;;;2.53;;
73779;SDS011;62093;37.614;15.072;2023-03-01T00:43:52;8.20;;;2.38;;
73779;SDS011;62093;37.614;15.072;2023-03-01T00:46:20;9.30;;;2.20;;
73779;SDS011;62093;37.614;15.072;2023-03-01T00:48:48;11.02;;;2.75;;
73779;SDS011;62093;37.614;15.072;2023-03-01T00:51:16;6.97;;;2.80;;
73779;SDS011;62093;37.614;15.072;2023-03-01T00:53:44;8.82;;;2.47;;
73779;SDS011;62093;37.614;15.072;2023-03-01T00:56:11;8.75;;;2.65;;
73779;SDS011;62093;37.614;15.072;2023-03-01T00:58:39;9.50;;;2.60;;
73779;SDS011;62093;37.614;15.072;2023-03-01T01:01:09;8.82;;;2.83;;
73779;SDS011;62093;37.614;15.072;2023-03-01T01:03:49;8.45;;;2.28;;
73779;SDS011;62093;37.614;15.072;2023-03-01T01:06:27;7.60;;;2.50;;
73779;SDS011;62093;37.614;15.072;2023-03-01T01:08:55;10.25;;;2.50;;
73779;SDS011;62093;37.614;15.072;2023-03-01T01:11:23;9.07;;;2.20;;
73779;SDS011;62093;37.614;15.072;2023-03-01T01:13:51;8.55;;;2.00;;
73779;SDS011;62093;37.614;15.072;2023-03-01T01:16:18;6.60;;;2.13;;
73779;SDS011;62093;37.614;15.072;2023-03-01T01:18:45;9.50;;;2.45;;
73779;SDS011;62093;37.614;15.072;2023-03-01T01:21:13;9.38;;;2.60;;
73779;SDS011;62093;37.614;15.072;2023-03-01T01:23:41;7.67;;;2.40;;
73779;SDS011;62093;37.614;15.072;2023-03-01T01:26:09;8.38;;;2.40;;
73779;SDS011;62093;37.614;15.072;2023-03-01T01:28:37;6.60;;;2.13;;
73779;SDS011;62093;37.614;15.072;2023-03-01T01:31:04;8.38;;;2.42;;
73779;SDS011;62093;37.614;15.072;2023-03-01T01:33:30;8.60;;;2.40;;
73779;SDS011;62093;37.614;15.072;2023-03-01T01:35:57;7.33;;;2.27;;
73779;SDS011;62093;37.614;15.072;2023-03-01T01:38:24;7.28;;;2.55;;
73779;SDS011;62093;37.614;15.072;2023-03-01T01:40:50;10.43;;;2.28;;
73779;SDS011;62093;37.614;15.072;2023-03-01T01:43:18;7.70;;;2.63;;
73779;SDS011;62093;37.614;15.072;2023-03-01T01:45:46;9.23;;;2.30;;
73779;SDS011;62093;37.614;15.072;2023-03-01T01:48:13;7.20;;;2.70;;
73779;SDS011;62093;37.614;15.072;2023-03-01T01:50:43;8.30;;;2.60;;
73779;SDS011;62093;37.614;15.072;2023-03-01T01:53:19;9.18;;;2.25;;
73779;SDS011;62093;37.614;15.072;2023-03-01T01:55:47;8.95;;;2.70;;
73779;SDS011;62093;37.614;15.072;2023-03-01T01:58:18;8.77;;;2.30;;
73779;SDS011;62093;37.614;15.072;2023-03-01T02:00:46;5.57;;;2.10;;
73779;SDS011;62093;37.614;15.072;2023-03-01T02:03:18;7.75;;;2.53;;
73779;SDS011;62093;37.614;15.072;2023-03-01T02:08:43;6.90;;;2.05;;
73779;SDS011;62093;37.614;15.072;2023-03-01T02:11:11;7.25;;;1.90;;
73779;SDS011;62093;37.614;15.072;2023-03-01T02:13:40;6.13;;;2.03;;
73779;SDS011;62093;37.614;15.072;2023-03-01T02:16:08;8.52;;;2.10;;
73779;SDS011;62093;37.614;15.072;2023-03-01T02:18:37;6.15;;;1.80;;
73779;SDS011;62093;37.614;15.072;2023-03-01T02:21:20;8.50;;;2.20;;
73779;SDS011;62093;37.614;15.072;2023-03-01T02:23:49;6.45;;;1.98;;
73779;SDS011;62093;37.614;15.072;2023-03-01T02:26:33;7.23;;;1.83;;
73779;SDS011;62093;37.614;15.072;2023-03-01T02:29:00;6.13;;;1.90;;
73779;SDS011;62093;37.614;15.072;2023-03-01T02:31:26;7.93;;;1.92;;
73779;SDS011;62093;37.614;15.072;2023-03-01T02:34:14;6.82;;;2.00;;
73779;SDS011;62093;37.614;15.072;2023-03-01T02:36:45;7.47;;;1.95;;
73779;SDS011;62093;37.614;15.072;2023-03-01T02:39:15;6.13;;;1.70;;
73779;SDS011;62093;37.614;15.072;2023-03-01T02:41:46;5.53;;;2.40;;
73779;SDS011;62093;37.614;15.072;2023-03-01T02:44:15;7.53;;;2.30;;
73779;SDS011;62093;37.614;15.072;2023-03-01T02:46:43;6.28;;;1.85;;
73779;SDS011;62093;37.614;15.072;2023-03-01T02:52:00;6.60;;;2.30;;
73779;SDS011;62093;37.614;15.072;2023-03-01T02:57:16;5.30;;;2.00;;
73779;SDS011;62093;37.614;15.072;2023-03-01T02:59:44;4.07;;;1.65;;
73779;SDS011;62093;37.614;15.072;2023-03-01T03:02:20;5.18;;;1.80;;
73779;SDS011;62093;37.614;15.072;2023-03-01T03:07:33;5.85;;;1.73;;
73779;SDS011;62093;37.614;15.072;2023-03-01T03:10:02;6.60;;;1.85;;
73779;SDS011;62093;37.614;15.072;2023-03-01T03:12:30;5.35;;;1.77;;
73779;SDS011;62093;37.614;15.072;2023-03-01T03:14:56;5.82;;;1.65;;
73779;SDS011;62093;37.614;15.072;2023-03-01T03:17:22;6.57;;;2.10;;
73779;SDS011;62093;37.614;15.072;2023-03-01T03:19:48;5.63;;;1.63;;
73779;SDS011;62093;37.614;15.072;2023-03-01T03:22:15;7.03;;;1.95;;
73779;SDS011;62093;37.614;15.072;2023-03-01T03:24:41;5.80;;;1.77;;
73779;SDS011;62093;37.614;15.072;2023-03-01T03:27:07;5.90;;;1.95;;
73779;SDS011;62093;37.614;15.072;2023-03-01T03:29:34;6.93;;;2.47;;
73779;SDS011;62093;37.614;15.072;2023-03-01T03:32:00;7.03;;;2.15;;
73779;SDS011;62093;37.614;15.072;2023-03-01T03:34:26;8.00;;;2.08;;
73779;SDS011;62093;37.614;15.072;2023-03-01T03:36:53;5.57;;;1.85;;
73779;SDS011;62093;37.614;15.072;2023-03-01T03:39:23;5.25;;;2.20;;
73779;SDS011;62093;37.614;15.072;2023-03-01T03:41:49;6.20;;;1.97;;
73779;SDS011;62093;37.614;15.072;2023-03-01T03:44:15;5.20;;;1.98;;
73779;SDS011;62093;37.614;15.072;2023-03-01T03:46:41;5.00;;;1.42;;
73779;SDS011;62093;37.614;15.072;2023-03-01T03:49:08;10.10;;;2.40;;
73779;SDS011;62093;37.614;15.072;2023-03-01T03:51:34;7.07;;;2.30;;
73779;SDS011;62093;37.614;15.072;2023-03-01T03:54:00;4.30;;;1.70;;
73779;SDS011;62093;37.614;15.072;2023-03-01T03:56:26;6.90;;;2.00;;
73779;SDS011;62093;37.614;15.072;2023-03-01T03:58:52;6.22;;;1.50;;
73779;SDS011;62093;37.614;15.072;2023-03-01T04:01:18;4.50;;;1.67;;
73779;SDS011;62093;37.614;15.072;2023-03-01T04:03:44;6.18;;;2.00;;
73779;SDS011;62093;37.614;15.072;2023-03-01T04:06:13;6.70;;;1.80;;
73779;SDS011;62093;37.614;15.072;2023-03-01T04:08:40;6.68;;;1.80;;
73779;SDS011;62093;37.614;15.072;2023-03-01T04:11:06;5.78;;;1.90;;
73779;SDS011;62093;37.614;15.072;2023-03-01T04:13:52;6.43;;;1.77;;
73779;SDS011;62093;37.614;15.072;2023-03-01T04:16:20;5.43;;;1.80;;
73779;SDS011;62093;37.614;15.072;2023-03-01T04:18:46;5.73;;;2.03;;
73779;SDS011;62093;37.614;15.072;2023-03-01T04:21:13;5.03;;;1.80;;
73779;SDS011;62093;37.614;15.072;2023-03-01T04:23:39;5.57;;;1.52;;
73779;SDS011;62093;37.614;15.072;2023-03-01T04:26:06;5.90;;;1.77;;
73779;SDS011;62093;37.614;15.072;2023-03-01T04:28:34;5.28;;;1.63;;
73779;SDS011;62093;37.614;15.072;2023-03-01T04:31:13;5.97;;;1.70;;
73779;SDS011;62093;37.614;15.072;2023-03-01T04:33:42;5.43;;;1.60;;
73779;SDS011;62093;37.614;15.072;2023-03-01T04:36:09;6.13;;;2.00;;
73779;SDS011;62093;37.614;15.072;2023-03-01T04:38:37;6.47;;;2.03;;
73779;SDS011;62093;37.614;15.072;2023-03-01T04:41:05;5.35;;;1.80;;
73779;SDS011;62093;37.614;15.072;2023-03-01T04:43:32;5.80;;;1.80;;
73779;SDS011;62093;37.614;15.072;2023-03-01T04:46:03;5.57;;;1.75;;
73779;SDS011;62093;37.614;15.072;2023-03-01T04:48:32;5.57;;;1.67;;
73779;SDS011;62093;37.614;15.072;2023-03-01T04:50:59;5.28;;;1.88;;
73779;SDS011;62093;37.614;15.072;2023-03-01T04:53:26;4.57;;;1.90;;
73779;SDS011;62093;37.614;15.072;2023-03-01T04:55:56;5.33;;;1.57;;
73779;SDS011;62093;37.614;15.072;2023-03-01T04:58:25;5.20;;;1.73;;
73779;SDS011;62093;37.614;15.072;2023-03-01T05:00:52;6.15;;;1.63;;
73779;SDS011;62093;37.614;15.072;2023-03-01T05:03:19;5.18;;;1.67;;
73779;SDS011;62093;37.614;15.072;2023-03-01T05:05:46;5.57;;;1.63;;
73779;SDS011;62093;37.614;15.072;2023-03-01T05:08:13;5.30;;;1.60;;
73779;SDS011;62093;37.614;15.072;2023-03-01T05:10:55;5.55;;;1.80;;
73779;SDS011;62093;37.614;15.072;2023-03-01T05:13:21;3.80;;;1.48;;
73779;SDS011;62093;37.614;15.072;2023-03-01T05:16:08;5.72;;;1.70;;
73779;SDS011;62093;37.614;15.072;2023-03-01T05:18:37;4.25;;;1.50;;
73779;SDS011;62093;37.614;15.072;2023-03-01T05:21:08;4.27;;;1.57;;
73779;SDS011;62093;37.614;15.072;2023-03-01T05:23:35;4.60;;;1.52;;
73779;SDS011;62093;37.614;15.072;2023-03-01T05:26:02;3.92;;;1.50;;
73779;SDS011;62093;37.614;15.072;2023-03-01T05:28:31;4.47;;;1.50;;
73779;SDS011;62093;37.614;15.072;2023-03-01T05:30:58;5.97;;;1.48;;
73779;SDS011;62093;37.614;15.072;2023-03-01T05:33:24;5.27;;;1.83;;
73779;SDS011;62093;37.614;15.072;2023-03-01T05:35:52;5.70;;;1.83;;
73779;SDS011;62093;37.614;15.072;2023-03-01T05:38:19;5.75;;;1.50;;
73779;SDS011;62093;37.614;15.072;2023-03-01T05:40:46;5.25;;;1.65;;
73779;SDS011;62093;37.614;15.072;2023-03-01T05:43:14;4.70;;;1.70;;
73779;SDS011;62093;37.614;15.072;2023-03-01T05:45:41;5.27;;;1.70;;
73779;SDS011;62093;37.614;15.072;2023-03-01T05:48:08;5.38;;;1.85;;
73779;SDS011;62093;37.614;15.072;2023-03-01T05:50:40;3.95;;;1.42;;
73779;SDS011;62093;37.614;15.072;2023-03-01T05:53:16;4.43;;;1.52;;
73779;SDS011;62093;37.614;15.072;2023-03-01T05:55:47;5.60;;;1.70;;
73779;SDS011;62093;37.614;15.072;2023-03-01T05:58:16;4.50;;;1.63;;
73779;SDS011;62093;37.614;15.072;2023-03-01T06:00:44;3.90;;;1.60;;
73779;SDS011;62093;37.614;15.072;2023-03-01T06:03:12;4.60;;;1.52;;
73779;SDS011;62093;37.614;15.072;2023-03-01T06:05:40;4.78;;;1.70;;
73779;SDS011;62093;37.614;15.072;2023-03-01T06:08:06;4.20;;;1.67;;
73779;SDS011;62093;37.614;15.072;2023-03-01T06:10:33;4.43;;;1.87;;
73779;SDS011;62093;37.614;15.072;2023-03-01T06:12:59;4.28;;;1.40;;
73779;SDS011;62093;37.614;15.072;2023-03-01T06:15:25;3.97;;;1.35;;
73779;SDS011;62093;37.614;15.072;2023-03-01T06:17:53;4.40;;;1.40;;
73779;SDS011;62093;37.614;15.072;2023-03-01T06:20:23;4.13;;;1.55;;
73779;SDS011;62093;37.614;15.072;2023-03-01T06:22:50;4.83;;;1.50;;
73779;SDS011;62093;37.614;15.072;2023-03-01T06:25:18;4.45;;;1.52;;
73779;SDS011;62093;37.614;15.072;2023-03-01T06:27:46;4.78;;;1.58;;
73779;SDS011;62093;37.614;15.072;2023-03-01T06:30:15;3.92;;;1.45;;
73779;SDS011;62093;37.614;15.072;2023-03-01T06:32:42;3.72;;;1.60;;
73779;SDS011;62093;37.614;15.072;2023-03-01T06:35:09;5.13;;;1.53;;
73779;SDS011;62093;37.614;15.072;2023-03-01T06:37:37;4.32;;;1.38;;
73779;SDS011;62093;37.614;15.072;2023-03-01T06:40:04;4.20;;;1.60;;
73779;SDS011;62093;37.614;15.072;2023-03-01T06:42:38;4.10;;;1.60;;
73779;SDS011;62093;37.614;15.072;2023-03-01T06:45:05;4.35;;;1.48;;
73779;SDS011;62093;37.614;15.072;2023-03-01T06:47:32;4.10;;;1.40;;
73779;SDS011;62093;37.614;15.072;2023-03-01T06:49:59;4.25;;;1.20;;
73779;SDS011;62093;37.614;15.072;2023-03-01T06:52:26;4.95;;;1.50;;
73779;SDS011;62093;37.614;15.072;2023-03-01T06:54:52;5.18;;;1.80;;
73779;SDS011;62093;37.614;15.072;2023-03-01T06:57:18;5.53;;;1.90;;
73779;SDS011;62093;37.614;15.072;2023-03-01T06:59:46;4.53;;;1.60;;
73779;SDS011;62093;37.614;15.072;2023-03-01T07:02:13;5.03;;;1.58;;
73779;SDS011;62093;37.614;15.072;2023-03-01T07:04:40;5.32;;;1.70;;
73779;SDS011;62093;37.614;15.072;2023-03-01T07:07:07;4.38;;;1.60;;
73779;SDS011;62093;37.614;15.072;2023-03-01T07:09:34;4.00;;;1.20;;
73779;SDS011;62093;37.614;15.072;2023-03-01T07:12:00;4.37;;;1.40;;
73779;SDS011;62093;37.614;15.072;2023-03-01T07:14:27;4.53;;;1.60;;
73779;SDS011;62093;37.614;15.072;2023-03-01T07:16:54;3.83;;;1.40;;
73779;SDS011;62093;37.614;15.072;2023-03-01T07:19:21;4.68;;;1.75;;
73779;SDS011;62093;37.614;15.072;2023-03-01T07:21:47;3.70;;;1.50;;
73779;SDS011;62093;37.614;15.072;2023-03-01T07:24:14;3.80;;;1.20;;
73779;SDS011;62093;37.614;15.072;2023-03-01T07:26:40;4.10;;;1.40;;
73779;SDS011;62093;37.614;15.072;2023-03-01T07:29:07;5.28;;;1.40;;
73779;SDS011;62093;37.614;15.072;2023-03-01T07:31:35;3.95;;;1.30;;
73779;SDS011;62093;37.614;15.072;2023-03-01T07:34:02;5.10;;;1.50;;
73779;SDS011;62093;37.614;15.072;2023-03-01T07:36:28;4.70;;;1.27;;
73779;SDS011;62093;37.614;15.072;2023-03-01T07:38:54;3.92;;;1.30;;
73779;SDS011;62093;37.614;15.072;2023-03-01T07:41:21;4.53;;;1.27;;
73779;SDS011;62093;37.614;15.072;2023-03-01T07:43:47;3.72;;;1.27;;
73779;SDS011;62093;37.614;15.072;2023-03-01T07:46:13;5.63;;;1.40;;
73779;SDS011;62093;37.614;15.072;2023-03-01T07:48:39;4.07;;;1.30;;
73779;SDS011;62093;37.614;15.072;2023-03-01T07:51:06;4.03;;;1.45;;
73779;SDS011;62093;37.614;15.072;2023-03-01T07:53:32;4.43;;;1.67;;
73779;SDS011;62093;37.614;15.072;2023-03-01T07:56:00;3.70;;;1.35;;
73779;SDS011;62093;37.614;15.072;2023-03-01T07:58:30;4.40;;;1.23;;
73779;SDS011;62093;37.614;15.072;2023-03-01T08:00:57;4.70;;;1.40;;
73779;SDS011;62093;37.614;15.072;2023-03-01T08:03:27;4.40;;;1.48;;
73779;SDS011;62093;37.614;15.072;2023-03-01T08:05:54;4.32;;;1.30;;
73779;SDS011;62093;37.614;15.072;2023-03-01T08:08:20;4.33;;;1.20;;
73779;SDS011;62093;37.614;15.072;2023-03-01T08:10:46;4.27;;;1.60;;
73779;SDS011;62093;37.614;15.072;2023-03-01T08:13:12;5.15;;;1.90;;
73779;SDS011;62093;37.614;15.072;2023-03-01T08:15:38;4.45;;;1.40;;
73779;SDS011;62093;37.614;15.072;2023-03-01T08:18:04;4.03;;;1.40;;
73779;SDS011;62093;37.614;15.072;2023-03-01T08:20:31;4.20;;;1.27;;
73779;SDS011;62093;37.614;15.072;2023-03-01T08:22:58;3.60;;;1.30;;
73779;SDS011;62093;37.614;15.072;2023-03-01T08:25:24;4.30;;;1.58;;
73779;SDS011;62093;37.614;15.072;2023-03-01T08:27:50;3.90;;;1.60;;
73779;SDS011;62093;37.614;15.072;2023-03-01T08:30:16;3.70;;;1.35;;
73779;SDS011;62093;37.614;15.072;2023-03-01T08:32:42;3.53;;;1.37;;
73779;SDS011;62093;37.614;15.072;2023-03-01T08:35:08;4.50;;;1.30;;
73779;SDS011;62093;37.614;15.072;2023-03-01T08:37:34;4.22;;;1.55;;
73779;SDS011;62093;37.614;15.072;2023-03-01T08:40:00;4.00;;;1.40;;
73779;SDS011;62093;37.614;15.072;2023-03-01T08:42:26;3.85;;;1.40;;
73779;SDS011;62093;37.614;15.072;2023-03-01T08:44:52;3.63;;;1.33;;
73779;SDS011;62093;37.614;15.072;2023-03-01T08:47:18;4.00;;;1.20;;
73779;SDS011;62093;37.614;15.072;2023-03-01T08:49:45;4.43;;;1.63;;
73779;SDS011;62093;37.614;15.072;2023-03-01T08:52:11;4.72;;;1.80;;
73779;SDS011;62093;37.614;15.072;2023-03-01T08:54:37;3.70;;;1.70;;
73779;SDS011;62093;37.614;15.072;2023-03-01T08:57:03;4.60;;;1.25;;
73779;SDS011;62093;37.614;15.072;2023-03-01T08:59:29;4.35;;;1.65;;
73779;SDS011;62093;37.614;15.072;2023-03-01T09:01:55;3.95;;;1.55;;
73779;SDS011;62093;37.614;15.072;2023-03-01T09:04:22;3.70;;;1.38;;
73779;SDS011;62093;37.614;15.072;2023-03-01T09:06:48;3.33;;;0.90;;
73779;SDS011;62093;37.614;15.072;2023-03-01T09:09:15;5.05;;;1.60;;
73779;SDS011;62093;37.614;15.072;2023-03-01T09:11:42;4.40;;;1.40;;
73779;SDS011;62093;37.614;15.072;2023-03-01T09:14:11;3.80;;;1.27;;
73779;SDS011;62093;37.614;15.072;2023-03-01T09:16:38;4.68;;;1.65;;
73779;SDS011;62093;37.614;15.072;2023-03-01T09:19:05;4.13;;;1.40;;
73779;SDS011;62093;37.614;15.072;2023-03-01T09:21:31;4.32;;;1.60;;
73779;SDS011;62093;37.614;15.072;2023-03-01T09:23:57;3.80;;;1.48;;
73779;SDS011;62093;37.614;15.072;2023-03-01T09:26:24;3.50;;;1.17;;
73779;SDS011;62093;37.614;15.072;2023-03-01T09:28:53;4.05;;;1.60;;
73779;SDS011;62093;37.614;15.072;2023-03-01T09:31:21;3.50;;;1.00;;
73779;SDS011;62093;37.614;15.072;2023-03-01T09:33:49;4.53;;;1.50;;
73779;SDS011;62093;37.614;15.072;2023-03-01T09:36:19;4.07;;;1.30;;
73779;SDS011;62093;37.614;15.072;2023-03-01T09:38:48;4.30;;;1.33;;
73779;SDS011;62093;37.614;15.072;2023-03-01T09:43:47;3.70;;;1.30;;
73779;SDS011;62093;37.614;15.072;2023-03-01T09:46:20;3.83;;;1.30;;
73779;SDS011;62093;37.614;15.072;2023-03-01T09:48:50;4.03;;;1.42;;
73779;SDS011;62093;37.614;15.072;2023-03-01T09:51:29;3.75;;;1.17;;
73779;SDS011;62093;37.614;15.072;2023-03-01T09:53:57;3.80;;;1.30;;
73779;SDS011;62093;37.614;15.072;2023-03-01T09:56:40;3.60;;;1.30;;
73779;SDS011;62093;37.614;15.072;2023-03-01T10:04:48;4.18;;;1.20;;
73779;SDS011;62093;37.614;15.072;2023-03-01T10:09:48;4.43;;;1.40;;
73779;SDS011;62093;37.614;15.072;2023-03-01T10:12:18;3.30;;;1.20;;
73779;SDS011;62093;37.614;15.072;2023-03-01T10:22:47;4.03;;;1.27;;
73779;SDS011;62093;37.614;15.072;2023-03-01T10:25:30;3.60;;;1.40;;
73779;SDS011;62093;37.614;15.072;2023-03-01T10:31:01;3.38;;;1.20;;
73779;SDS011;62093;37.614;15.072;2023-03-01T10:33:32;3.97;;;1.10;;
73779;SDS011;62093;37.614;15.072;2023-03-01T10:36:02;3.80;;;1.10;;
73779;SDS011;62093;37.614;15.072;2023-03-01T10:38:33;3.55;;;1.10;;
73779;SDS011;62093;37.614;15.072;2023-03-01T10:41:14;3.53;;;1.27;;
73779;SDS011;62093;37.614;15.072;2023-03-01T10:43:50;4.07;;;1.25;;
73779;SDS011;62093;37.614;15.072;2023-03-01T10:46:26;3.67;;;1.15;;
73779;SDS011;62093;37.614;15.072;2023-03-01T10:51:33;3.70;;;1.20;;
73779;SDS011;62093;37.614;15.072;2023-03-01T10:53:59;3.80;;;1.50;;
73779;SDS011;62093;37.614;15.072;2023-03-01T10:56:26;3.50;;;1.10;;
73779;SDS011;62093;37.614;15.072;2023-03-01T11:01:24;3.90;;;1.10;;
73779;SDS011;62093;37.614;15.072;2023-03-01T11:04:17;3.65;;;1.20;;
73779;SDS011;62093;37.614;15.072;2023-03-01T11:06:43;4.00;;;1.42;;
73779;SDS011;62093;37.614;15.072;2023-03-01T11:09:24;3.65;;;1.10;;
73779;SDS011;62093;37.614;15.072;2023-03-01T11:11:53;4.00;;;1.08;;
73779;SDS011;62093;37.614;15.072;2023-03-01T11:14:25;3.30;;;1.20;;
73779;SDS011;62093;37.614;15.072;2023-03-01T11:17:01;4.85;;;1.48;;
73779;SDS011;62093;37.614;15.072;2023-03-01T11:19:37;4.38;;;1.35;;
73779;SDS011;62093;37.614;15.072;2023-03-01T11:24:59;4.03;;;1.40;;
73779;SDS011;62093;37.614;15.072;2023-03-01T11:32:42;3.92;;;1.30;;
73779;SDS011;62093;37.614;15.072;2023-03-01T11:35:20;3.45;;;1.10;;
73779;SDS011;62093;37.614;15.072;2023-03-01T11:40:44;3.43;;;0.90;;
73779;SDS011;62093;37.614;15.072;2023-03-01T11:57:43;3.95;;;1.20;;
73779;SDS011;62093;37.614;15.072;2023-03-01T12:09:12;3.57;;;1.20;;
73779;SDS011;62093;37.614;15.072;2023-03-01T12:26:01;3.45;;;1.45;;
73779;SDS011;62093;37.614;15.072;2023-03-01T12:36:56;3.40;;;1.10;;
73779;SDS011;62093;37.614;15.072;2023-03-01T12:39:51;3.30;;;1.00;;
73779;SDS011;62093;37.614;15.072;2023-03-01T12:48:41;4.18;;;1.23;;
73779;SDS011;62093;37.614;15.072;2023-03-01T12:51:17;3.83;;;1.23;;
73779;SDS011;62093;37.614;15.072;2023-03-01T12:53:49;3.60;;;1.02;;
73779;SDS011;62093;37.614;15.072;2023-03-01T12:56:22;4.00;;;1.55;;
73779;SDS011;62093;37.614;15.072;2023-03-01T13:02:16;3.92;;;1.20;;
73779;SDS011;62093;37.614;15.072;2023-03-01T13:10:52;4.22;;;1.20;;
73779;SDS011;62093;37.614;15.072;2023-03-01T13:13:26;3.40;;;1.13;;
73779;SDS011;62093;37.614;15.072;2023-03-01T13:15:53;4.43;;;1.20;;
73779;SDS011;62093;37.614;15.072;2023-03-01T13:20:49;3.55;;;1.20;;
73779;SDS011;62093;37.614;15.072;2023-03-01T13:31:03;4.47;;;1.10;;
73779;SDS011;62093;37.614;15.072;2023-03-01T13:33:41;4.45;;;1.00;;
73779;SDS011;62093;37.614;15.072;2023-03-01T13:36:09;4.05;;;1.35;;
73779;SDS011;62093;37.614;15.072;2023-03-01T13:38:44;3.90;;;1.23;;
73779;SDS011;62093;37.614;15.072;2023-03-01T13:41:15;3.47;;;1.20;;
73779;SDS011;62093;37.614;15.072;2023-03-01T13:43:44;4.33;;;1.20;;
73779;SDS011;62093;37.614;15.072;2023-03-01T13:46:22;4.50;;;1.25;;
73779;SDS011;62093;37.614;15.072;2023-03-01T13:48:50;3.45;;;1.13;;
73779;SDS011;62093;37.614;15.072;2023-03-01T13:51:25;2.95;;;1.13;;
73779;SDS011;62093;37.614;15.072;2023-03-01T13:53:54;3.67;;;1.30;;
73779;SDS011;62093;37.614;15.072;2023-03-01T13:56:25;3.60;;;1.30;;
73779;SDS011;62093;37.614;15.072;2023-03-01T14:01:37;4.00;;;1.35;;
73779;SDS011;62093;37.614;15.072;2023-03-01T14:04:14;3.30;;;1.15;;
73779;SDS011;62093;37.614;15.072;2023-03-01T14:06:46;3.13;;;0.80;;
73779;SDS011;62093;37.614;15.072;2023-03-01T14:09:20;3.57;;;1.20;;
73779;SDS011;62093;37.614;15.072;2023-03-01T14:17:23;4.35;;;1.20;;
73779;SDS011;62093;37.614;15.072;2023-03-01T14:19:54;3.88;;;1.45;;
73779;SDS011;62093;37.614;15.072;2023-03-01T14:22:24;4.30;;;1.40;;
73779;SDS011;62093;37.614;15.072;2023-03-01T14:24:55;4.03;;;1.40;;
73779;SDS011;62093;37.614;15.072;2023-03-01T14:27:25;4.05;;;1.35;;
73779;SDS011;62093;37.614;15.072;2023-03-01T14:29:54;3.92;;;1.42;;
73779;SDS011;62093;37.614;15.072;2023-03-01T14:32:25;4.10;;;1.23;;
73779;SDS011;62093;37.614;15.072;2023-03-01T14:34:53;4.07;;;1.17;;
73779;SDS011;62093;37.614;15.072;2023-03-01T14:37:21;4.10;;;1.60;;
73779;SDS011;62093;37.614;15.072;2023-03-01T14:39:58;4.65;;;1.58;;
73779;SDS011;62093;37.614;15.072;2023-03-01T14:42:28;4.38;;;1.40;;
73779;SDS011;62093;37.614;15.072;2023-03-01T14:44:57;4.65;;;1.60;;
73779;SDS011;62093;37.614;15.072;2023-03-01T14:47:29;4.00;;;1.30;;
73779;SDS011;62093;37.614;15.072;2023-03-01T14:50:01;4.72;;;1.40;;
73779;SDS011;62093;37.614;15.072;2023-03-01T14:52:40;4.10;;;1.38;;
73779;SDS011;62093;37.614;15.072;2023-03-01T14:55:19;4.20;;;1.52;;
73779;SDS011;62093;37.614;15.072;2023-03-01T14:57:50;4.03;;;1.25;;
73779;SDS011;62093;37.614;15.072;2023-03-01T15:00:24;4.33;;;1.40;;
73779;SDS011;62093;37.614;15.072;2023-03-01T15:02:55;3.95;;;1.40;;
73779;SDS011;62093;37.614;15.072;2023-03-01T15:05:26;4.30;;;1.40;;
73779;SDS011;62093;37.614;15.072;2023-03-01T15:07:56;3.90;;;1.35;;
73779;SDS011;62093;37.614;15.072;2023-03-01T15:10:26;3.97;;;1.38;;
73779;SDS011;62093;37.614;15.072;2023-03-01T15:13:09;3.73;;;1.27;;
73779;SDS011;62093;37.614;15.072;2023-03-01T15:15:45;4.95;;;1.67;;
73779;SDS011;62093;37.614;15.072;2023-03-01T15:18:21;4.18;;;1.70;;
73779;SDS011;62093;37.614;15.072;2023-03-01T15:20:51;4.55;;;2.00;;
73779;SDS011;62093;37.614;15.072;2023-03-01T15:23:27;4.85;;;1.40;;
73779;SDS011;62093;37.614;15.072;2023-03-01T15:25:55;3.87;;;1.37;;
73779;SDS011;62093;37.614;15.072;2023-03-01T15:31:15;4.80;;;1.60;;
73779;SDS011;62093;37.614;15.072;2023-03-01T15:33:51;4.35;;;1.50;;
73779;SDS011;62093;37.614;15.072;2023-03-01T15:36:38;6.38;;;1.65;;
73779;SDS011;62093;37.614;15.072;2023-03-01T15:39:05;4.73;;;1.60;;
73779;SDS011;62093;37.614;15.072;2023-03-01T15:41:51;4.55;;;1.80;;
73779;SDS011;62093;37.614;15.072;2023-03-01T15:44:38;4.35;;;1.60;;
73779;SDS011;62093;37.614;15.072;2023-03-01T15:47:23;4.85;;;1.50;;
73779;SDS011;62093;37.614;15.072;2023-03-01T15:49:55;5.15;;;1.85;;
73779;SDS011;62093;37.614;15.072;2023-03-01T15:55:01;5.05;;;1.75;;
73779;SDS011;62093;37.614;15.072;2023-03-01T15:57:28;4.50;;;1.30;;
73779;SDS011;62093;37.614;15.072;2023-03-01T15:59:55;5.35;;;1.80;;
73779;SDS011;62093;37.614;15.072;2023-03-01T16:02:22;5.78;;;1.52;;
73779;SDS011;62093;37.614;15.072;2023-03-01T16:04:49;4.60;;;1.67;;
73779;SDS011;62093;37.614;15.072;2023-03-01T16:07:16;4.85;;;1.60;;
73779;SDS011;62093;37.614;15.072;2023-03-01T16:09:42;5.57;;;1.58;;
73779;SDS011;62093;37.614;15.072;2023-03-01T16:12:12;5.90;;;1.80;;
73779;SDS011;62093;37.614;15.072;2023-03-01T16:14:40;5.30;;;1.73;;
73779;SDS011;62093;37.614;15.072;2023-03-01T16:17:06;8.53;;;2.00;;
73779;SDS011;62093;37.614;15.072;2023-03-01T16:19:35;9.88;;;2.20;;
73779;SDS011;62093;37.614;15.072;2023-03-01T16:22:03;6.80;;;1.85;;
73779;SDS011;62093;37.614;15.072;2023-03-01T16:24:29;6.28;;;2.03;;
73779;SDS011;62093;37.614;15.072;2023-03-01T16:26:55;9.00;;;2.08;;
73779;SDS011;62093;37.614;15.072;2023-03-01T16:29:21;7.63;;;1.80;;
73779;SDS011;62093;37.614;15.072;2023-03-01T16:31:47;6.90;;;2.28;;
73779;SDS011;62093;37.614;15.072;2023-03-01T16:34:13;6.80;;;1.80;;
73779;SDS011;62093;37.614;15.072;2023-03-01T16:36:39;7.75;;;2.08;;
73779;SDS011;62093;37.614;15.072;2023-03-01T16:39:08;7.97;;;2.08;;
73779;SDS011;62093;37.614;15.072;2023-03-01T16:41:34;6.87;;;2.10;;
73779;SDS011;62093;37.614;15.072;2023-03-01T16:44:00;7.25;;;2.00;;
73779;SDS011;62093;37.614;15.072;2023-03-01T16:46:27;8.90;;;2.20;;
73779;SDS011;62093;37.614;15.072;2023-03-01T16:48:54;9.10;;;1.98;;
73779;SDS011;62093;37.614;15.072;2023-03-01T16:51:20;6.95;;;1.70;;
73779;SDS011;62093;37.614;15.072;2023-03-01T16:53:47;10.43;;;1.90;;
73779;SDS011;62093;37.614;15.072;2023-03-01T16:56:13;9.65;;;2.33;;
73779;SDS011;62093;37.614;15.072;2023-03-01T16:58:40;7.43;;;1.77;;
73779;SDS011;62093;37.614;15.072;2023-03-01T17:01:07;10.73;;;2.63;;